sensor_id;sensor_type;location;lat;lon;timestamp;P1;durP1;ratioP1;P2;durP2;ratioP2
64712;SDS011;51140;45.340;5.980;2022-07-10T00:02:13;3.47;;;1.38;;
64712;SDS011;51140;45.340;5.980;2022-07-10T00:04:38;8.90;;;1.58;;
64712;SDS011;51140;45.340;5.980;2022-07-10T00:07:04;4.18;;;1.58;;
64712;SDS011;51140;45.340;5.980;2022-07-10T00:09:31;3.17;;;1.60;;
64712;SDS011;51140;45.340;5.980;2022-07-10T00:11:56;4.45;;;1.50;;
64712;SDS011;51140;45.340;5.980;2022-07-10T00:14:22;4.53;;;1.77;;
64712;SDS011;51140;45.340;5.980;2022-07-10T00:16:48;4.43;;;1.75;;
64712;SDS011;51140;45.340;5.980;2022-07-10T00:19:13;4.18;;;1.77;;
64712;SDS011;51140;45.340;5.980;2022-07-10T00:21:38;4.63;;;1.83;;
64712;SDS011;51140;45.340;5.980;2022-07-10T00:24:04;5.28;;;1.67;;
64712;SDS011;51140;45.340;5.980;2022-07-10T00:26:30;4.63;;;1.70;;
64712;SDS011;51140;45.340;5.980;2022-07-10T00:28:55;5.40;;;1.70;;
64712;SDS011;51140;45.340;5.980;2022-07-10T00:31:21;8.05;;;1.83;;
64712;SDS011;51140;45.340;5.980;2022-07-10T00:33:47;4.05;;;1.80;;
64712;SDS011;51140;45.340;5.980;2022-07-10T00:36:13;3.50;;;1.48;;
64712;SDS011;51140;45.340;5.980;2022-07-10T00:38:38;3.85;;;1.60;;
64712;SDS011;51140;45.340;5.980;2022-07-10T00:41:04;4.60;;;1.73;;
64712;SDS011;51140;45.340;5.980;2022-07-10T00:43:29;4.25;;;1.63;;
64712;SDS011;51140;45.340;5.980;2022-07-10T00:45:55;4.22;;;1.60;;
64712;SDS011;51140;45.340;5.980;2022-07-10T00:48:21;4.15;;;1.60;;
64712;SDS011;51140;45.340;5.980;2022-07-10T00:50:46;3.42;;;1.65;;
64712;SDS011;51140;45.340;5.980;2022-07-10T00:53:12;5.55;;;1.90;;
64712;SDS011;51140;45.340;5.980;2022-07-10T00:55:38;4.65;;;1.70;;
64712;SDS011;51140;45.340;5.980;2022-07-10T00:58:07;4.85;;;1.60;;
64712;SDS011;51140;45.340;5.980;2022-07-10T01:00:35;4.10;;;1.55;;
64712;SDS011;51140;45.340;5.980;2022-07-10T01:03:02;4.93;;;1.90;;
64712;SDS011;51140;45.340;5.980;2022-07-10T01:05:28;5.22;;;1.60;;
64712;SDS011;51140;45.340;5.980;2022-07-10T01:07:54;4.05;;;1.60;;
64712;SDS011;51140;45.340;5.980;2022-07-10T01:10:19;6.05;;;1.60;;
64712;SDS011;51140;45.340;5.980;2022-07-10T01:12:44;4.00;;;1.70;;
64712;SDS011;51140;45.340;5.980;2022-07-10T01:15:11;8.98;;;1.95;;
64712;SDS011;51140;45.340;5.980;2022-07-10T01:17:36;5.28;;;1.92;;
64712;SDS011;51140;45.340;5.980;2022-07-10T01:20:08;9.38;;;1.92;;
64712;SDS011;51140;45.340;5.980;2022-07-10T01:22:37;4.53;;;1.58;;
64712;SDS011;51140;45.340;5.980;2022-07-10T01:25:03;3.20;;;1.63;;
64712;SDS011;51140;45.340;5.980;2022-07-10T01:27:28;5.00;;;1.48;;
64712;SDS011;51140;45.340;5.980;2022-07-10T01:29:54;6.28;;;1.70;;
64712;SDS011;51140;45.340;5.980;2022-07-10T01:32:19;3.80;;;2.00;;
64712;SDS011;51140;45.340;5.980;2022-07-10T01:34:45;4.95;;;1.65;;
64712;SDS011;51140;45.340;5.980;2022-07-10T01:37:12;4.78;;;2.00;;
64712;SDS011;51140;45.340;5.980;2022-07-10T01:39:37;3.90;;;1.58;;
64712;SDS011;51140;45.340;5.980;2022-07-10T01:42:03;3.50;;;1.40;;
64712;SDS011;51140;45.340;5.980;2022-07-10T01:44:28;4.57;;;1.80;;
64712;SDS011;51140;45.340;5.980;2022-07-10T01:46:54;7.82;;;1.70;;
64712;SDS011;51140;45.340;5.980;2022-07-10T01:49:19;5.32;;;1.88;;
64712;SDS011;51140;45.340;5.980;2022-07-10T01:51:44;4.07;;;1.60;;
64712;SDS011;51140;45.340;5.980;2022-07-10T01:54:10;4.88;;;1.75;;
64712;SDS011;51140;45.340;5.980;2022-07-10T01:56:35;6.05;;;1.63;;
64712;SDS011;51140;45.340;5.980;2022-07-10T01:59:01;4.03;;;1.70;;
64712;SDS011;51140;45.340;5.980;2022-07-10T02:01:28;4.07;;;1.70;;
64712;SDS011;51140;45.340;5.980;2022-07-10T02:03:53;3.40;;;1.73;;
64712;SDS011;51140;45.340;5.980;2022-07-10T02:06:37;4.30;;;1.70;;
64712;SDS011;51140;45.340;5.980;2022-07-10T02:09:03;4.82;;;1.80;;
64712;SDS011;51140;45.340;5.980;2022-07-10T02:11:28;3.85;;;1.63;;
64712;SDS011;51140;45.340;5.980;2022-07-10T02:13:53;6.43;;;1.75;;
64712;SDS011;51140;45.340;5.980;2022-07-10T02:16:19;3.95;;;1.58;;
64712;SDS011;51140;45.340;5.980;2022-07-10T02:18:44;2.97;;;1.55;;
64712;SDS011;51140;45.340;5.980;2022-07-10T02:21:10;4.70;;;1.83;;
64712;SDS011;51140;45.340;5.980;2022-07-10T02:23:35;3.63;;;1.73;;
64712;SDS011;51140;45.340;5.980;2022-07-10T02:26:01;3.78;;;1.50;;
64712;SDS011;51140;45.340;5.980;2022-07-10T02:28:27;5.75;;;2.10;;
64712;SDS011;51140;45.340;5.980;2022-07-10T02:30:53;4.18;;;1.73;;
64712;SDS011;51140;45.340;5.980;2022-07-10T02:33:18;6.20;;;2.00;;
64712;SDS011;51140;45.340;5.980;2022-07-10T02:35:44;5.47;;;1.77;;
64712;SDS011;51140;45.340;5.980;2022-07-10T02:38:09;4.93;;;1.60;;
64712;SDS011;51140;45.340;5.980;2022-07-10T02:40:34;3.95;;;1.50;;
64712;SDS011;51140;45.340;5.980;2022-07-10T02:43:00;6.95;;;1.90;;
64712;SDS011;51140;45.340;5.980;2022-07-10T02:45:25;3.55;;;1.58;;
64712;SDS011;51140;45.340;5.980;2022-07-10T02:47:50;5.65;;;1.58;;
64712;SDS011;51140;45.340;5.980;2022-07-10T02:50:16;3.97;;;1.80;;
64712;SDS011;51140;45.340;5.980;2022-07-10T02:52:41;6.43;;;1.95;;
64712;SDS011;51140;45.340;5.980;2022-07-10T02:55:07;5.65;;;1.83;;
64712;SDS011;51140;45.340;5.980;2022-07-10T02:57:32;7.30;;;1.73;;
64712;SDS011;51140;45.340;5.980;2022-07-10T02:59:58;5.90;;;2.13;;
64712;SDS011;51140;45.340;5.980;2022-07-10T03:02:24;4.97;;;1.67;;
64712;SDS011;51140;45.340;5.980;2022-07-10T03:04:49;4.80;;;1.92;;
64712;SDS011;51140;45.340;5.980;2022-07-10T03:07:14;4.07;;;1.73;;
64712;SDS011;51140;45.340;5.980;2022-07-10T03:09:40;4.60;;;1.83;;
64712;SDS011;51140;45.340;5.980;2022-07-10T03:12:05;4.20;;;1.80;;
64712;SDS011;51140;45.340;5.980;2022-07-10T03:14:31;3.40;;;1.50;;
64712;SDS011;51140;45.340;5.980;2022-07-10T03:16:57;5.70;;;1.70;;
64712;SDS011;51140;45.340;5.980;2022-07-10T03:19:22;3.22;;;1.50;;
64712;SDS011;51140;45.340;5.980;2022-07-10T03:21:47;6.32;;;1.50;;
64712;SDS011;51140;45.340;5.980;2022-07-10T03:24:13;5.80;;;1.80;;
64712;SDS011;51140;45.340;5.980;2022-07-10T03:26:38;3.80;;;1.70;;
64712;SDS011;51140;45.340;5.980;2022-07-10T03:29:04;4.00;;;1.80;;
64712;SDS011;51140;45.340;5.980;2022-07-10T03:31:29;5.05;;;1.70;;
64712;SDS011;51140;45.340;5.980;2022-07-10T03:33:54;7.35;;;1.90;;
64712;SDS011;51140;45.340;5.980;2022-07-10T03:36:20;4.03;;;1.70;;
64712;SDS011;51140;45.340;5.980;2022-07-10T03:38:45;4.97;;;1.70;;
64712;SDS011;51140;45.340;5.980;2022-07-10T03:41:11;3.58;;;1.70;;
64712;SDS011;51140;45.340;5.980;2022-07-10T03:43:38;2.78;;;1.50;;
64712;SDS011;51140;45.340;5.980;2022-07-10T03:46:03;4.68;;;1.90;;
64712;SDS011;51140;45.340;5.980;2022-07-10T03:48:28;4.32;;;1.55;;
64712;SDS011;51140;45.340;5.980;2022-07-10T03:50:54;4.13;;;1.65;;
64712;SDS011;51140;45.340;5.980;2022-07-10T03:53:19;3.85;;;1.60;;
64712;SDS011;51140;45.340;5.980;2022-07-10T03:55:45;5.47;;;1.90;;
64712;SDS011;51140;45.340;5.980;2022-07-10T03:58:10;5.22;;;1.88;;
64712;SDS011;51140;45.340;5.980;2022-07-10T04:00:35;4.72;;;1.80;;
64712;SDS011;51140;45.340;5.980;2022-07-10T04:03:06;8.13;;;2.03;;
64712;SDS011;51140;45.340;5.980;2022-07-10T04:05:32;4.50;;;2.05;;
64712;SDS011;51140;45.340;5.980;2022-07-10T04:07:59;4.68;;;2.20;;
64712;SDS011;51140;45.340;5.980;2022-07-10T04:10:25;5.95;;;2.03;;
64712;SDS011;51140;45.340;5.980;2022-07-10T04:12:52;7.35;;;2.05;;
64712;SDS011;51140;45.340;5.980;2022-07-10T04:15:17;5.72;;;1.80;;
64712;SDS011;51140;45.340;5.980;2022-07-10T04:17:44;4.57;;;1.63;;
64712;SDS011;51140;45.340;5.980;2022-07-10T04:20:09;5.28;;;1.98;;
64712;SDS011;51140;45.340;5.980;2022-07-10T04:22:35;3.63;;;1.77;;
64712;SDS011;51140;45.340;5.980;2022-07-10T04:25:00;5.35;;;1.75;;
64712;SDS011;51140;45.340;5.980;2022-07-10T04:27:26;4.18;;;1.70;;
64712;SDS011;51140;45.340;5.980;2022-07-10T04:29:51;4.90;;;1.95;;
64712;SDS011;51140;45.340;5.980;2022-07-10T04:32:17;7.00;;;2.10;;
64712;SDS011;51140;45.340;5.980;2022-07-10T04:34:43;5.03;;;2.05;;
64712;SDS011;51140;45.340;5.980;2022-07-10T04:37:08;4.30;;;1.75;;
64712;SDS011;51140;45.340;5.980;2022-07-10T04:39:34;4.70;;;1.80;;
64712;SDS011;51140;45.340;5.980;2022-07-10T04:42:04;4.40;;;1.63;;
64712;SDS011;51140;45.340;5.980;2022-07-10T04:44:30;7.43;;;1.70;;
64712;SDS011;51140;45.340;5.980;2022-07-10T04:46:56;3.92;;;1.70;;
64712;SDS011;51140;45.340;5.980;2022-07-10T04:49:21;4.10;;;1.80;;
64712;SDS011;51140;45.340;5.980;2022-07-10T04:51:47;4.13;;;1.80;;
64712;SDS011;51140;45.340;5.980;2022-07-10T04:54:12;5.90;;;2.20;;
64712;SDS011;51140;45.340;5.980;2022-07-10T04:56:38;5.13;;;1.98;;
64712;SDS011;51140;45.340;5.980;2022-07-10T04:59:03;4.35;;;1.70;;
64712;SDS011;51140;45.340;5.980;2022-07-10T05:01:28;4.90;;;1.80;;
64712;SDS011;51140;45.340;5.980;2022-07-10T05:03:54;3.28;;;1.70;;
64712;SDS011;51140;45.340;5.980;2022-07-10T05:06:19;3.97;;;2.05;;
64712;SDS011;51140;45.340;5.980;2022-07-10T05:08:44;7.30;;;2.05;;
64712;SDS011;51140;45.340;5.980;2022-07-10T05:11:10;4.55;;;1.88;;
64712;SDS011;51140;45.340;5.980;2022-07-10T05:13:36;7.90;;;1.80;;
64712;SDS011;51140;45.340;5.980;2022-07-10T05:16:02;5.03;;;1.95;;
64712;SDS011;51140;45.340;5.980;2022-07-10T05:18:28;6.28;;;1.95;;
64712;SDS011;51140;45.340;5.980;2022-07-10T05:20:53;4.65;;;1.88;;
64712;SDS011;51140;45.340;5.980;2022-07-10T05:23:19;5.00;;;1.90;;
64712;SDS011;51140;45.340;5.980;2022-07-10T05:25:44;4.43;;;1.80;;
64712;SDS011;51140;45.340;5.980;2022-07-10T05:28:10;4.47;;;1.80;;
64712;SDS011;51140;45.340;5.980;2022-07-10T05:30:37;5.15;;;2.05;;
64712;SDS011;51140;45.340;5.980;2022-07-10T05:33:03;5.82;;;1.90;;
64712;SDS011;51140;45.340;5.980;2022-07-10T05:35:28;6.45;;;2.10;;
64712;SDS011;51140;45.340;5.980;2022-07-10T05:37:54;4.85;;;2.38;;
64712;SDS011;51140;45.340;5.980;2022-07-10T05:40:19;7.65;;;2.70;;
64712;SDS011;51140;45.340;5.980;2022-07-10T05:42:45;9.18;;;2.80;;
64712;SDS011;51140;45.340;5.980;2022-07-10T05:45:11;11.32;;;2.75;;
64712;SDS011;51140;45.340;5.980;2022-07-10T05:47:36;7.97;;;2.30;;
64712;SDS011;51140;45.340;5.980;2022-07-10T05:50:02;8.90;;;2.67;;
64712;SDS011;51140;45.340;5.980;2022-07-10T05:52:28;6.03;;;2.25;;
64712;SDS011;51140;45.340;5.980;2022-07-10T05:54:53;6.10;;;2.65;;
64712;SDS011;51140;45.340;5.980;2022-07-10T05:57:18;4.45;;;2.05;;
64712;SDS011;51140;45.340;5.980;2022-07-10T05:59:44;4.90;;;1.70;;
64712;SDS011;51140;45.340;5.980;2022-07-10T06:02:09;5.43;;;2.03;;
64712;SDS011;51140;45.340;5.980;2022-07-10T06:04:36;3.63;;;1.80;;
64712;SDS011;51140;45.340;5.980;2022-07-10T06:07:01;5.55;;;1.90;;
64712;SDS011;51140;45.340;5.980;2022-07-10T06:09:27;5.35;;;2.08;;
64712;SDS011;51140;45.340;5.980;2022-07-10T06:11:52;5.25;;;1.77;;
64712;SDS011;51140;45.340;5.980;2022-07-10T06:14:18;4.70;;;1.95;;
64712;SDS011;51140;45.340;5.980;2022-07-10T06:16:43;10.90;;;1.60;;
64712;SDS011;51140;45.340;5.980;2022-07-10T06:19:08;6.97;;;1.70;;
64712;SDS011;51140;45.340;5.980;2022-07-10T06:21:34;3.78;;;1.83;;
64712;SDS011;51140;45.340;5.980;2022-07-10T06:23:59;4.35;;;1.88;;
64712;SDS011;51140;45.340;5.980;2022-07-10T06:26:25;3.53;;;1.67;;
64712;SDS011;51140;45.340;5.980;2022-07-10T06:28:50;4.47;;;2.10;;
64712;SDS011;51140;45.340;5.980;2022-07-10T06:31:16;5.07;;;1.80;;
64712;SDS011;51140;45.340;5.980;2022-07-10T06:33:41;4.85;;;2.00;;
64712;SDS011;51140;45.340;5.980;2022-07-10T06:36:07;5.13;;;1.77;;
64712;SDS011;51140;45.340;5.980;2022-07-10T06:38:32;5.47;;;1.95;;
64712;SDS011;51140;45.340;5.980;2022-07-10T06:40:58;3.72;;;1.80;;
64712;SDS011;51140;45.340;5.980;2022-07-10T06:43:23;4.28;;;2.00;;
64712;SDS011;51140;45.340;5.980;2022-07-10T06:45:49;6.90;;;2.03;;
64712;SDS011;51140;45.340;5.980;2022-07-10T06:48:15;4.30;;;1.88;;
64712;SDS011;51140;45.340;5.980;2022-07-10T06:50:41;5.05;;;2.15;;
64712;SDS011;51140;45.340;5.980;2022-07-10T06:53:06;4.80;;;2.00;;
64712;SDS011;51140;45.340;5.980;2022-07-10T06:55:32;4.30;;;1.77;;
64712;SDS011;51140;45.340;5.980;2022-07-10T06:57:58;4.70;;;1.90;;
64712;SDS011;51140;45.340;5.980;2022-07-10T07:00:24;5.63;;;2.00;;
64712;SDS011;51140;45.340;5.980;2022-07-10T07:02:50;5.20;;;2.08;;
64712;SDS011;51140;45.340;5.980;2022-07-10T07:05:15;4.70;;;2.17;;
64712;SDS011;51140;45.340;5.980;2022-07-10T07:07:41;6.32;;;1.98;;
64712;SDS011;51140;45.340;5.980;2022-07-10T07:10:07;5.63;;;2.03;;
64712;SDS011;51140;45.340;5.980;2022-07-10T07:12:33;5.05;;;2.13;;
64712;SDS011;51140;45.340;5.980;2022-07-10T07:14:58;5.25;;;2.05;;
64712;SDS011;51140;45.340;5.980;2022-07-10T07:17:24;6.80;;;2.13;;
64712;SDS011;51140;45.340;5.980;2022-07-10T07:19:58;6.57;;;1.92;;
64712;SDS011;51140;45.340;5.980;2022-07-10T07:22:42;4.75;;;2.15;;
64712;SDS011;51140;45.340;5.980;2022-07-10T07:25:25;6.15;;;1.88;;
64712;SDS011;51140;45.340;5.980;2022-07-10T07:27:51;13.43;;;2.22;;
64712;SDS011;51140;45.340;5.980;2022-07-10T07:30:16;5.32;;;1.95;;
64712;SDS011;51140;45.340;5.980;2022-07-10T07:32:42;4.55;;;1.65;;
64712;SDS011;51140;45.340;5.980;2022-07-10T07:35:09;10.05;;;1.92;;
64712;SDS011;51140;45.340;5.980;2022-07-10T07:40:05;4.15;;;1.80;;
64712;SDS011;51140;45.340;5.980;2022-07-10T07:42:32;6.75;;;1.85;;
64712;SDS011;51140;45.340;5.980;2022-07-10T07:44:57;3.22;;;1.50;;
64712;SDS011;51140;45.340;5.980;2022-07-10T07:47:23;4.00;;;1.60;;
64712;SDS011;51140;45.340;5.980;2022-07-10T07:49:48;3.33;;;1.50;;
64712;SDS011;51140;45.340;5.980;2022-07-10T07:52:14;4.25;;;1.55;;
64712;SDS011;51140;45.340;5.980;2022-07-10T07:54:39;3.78;;;1.70;;
64712;SDS011;51140;45.340;5.980;2022-07-10T07:57:06;5.68;;;1.70;;
64712;SDS011;51140;45.340;5.980;2022-07-10T07:59:32;5.07;;;1.63;;
64712;SDS011;51140;45.340;5.980;2022-07-10T08:01:57;3.10;;;1.50;;
64712;SDS011;51140;45.340;5.980;2022-07-10T08:04:23;4.00;;;1.70;;
64712;SDS011;51140;45.340;5.980;2022-07-10T08:06:48;3.67;;;1.60;;
64712;SDS011;51140;45.340;5.980;2022-07-10T08:09:17;3.17;;;1.50;;
64712;SDS011;51140;45.340;5.980;2022-07-10T08:11:43;4.47;;;1.67;;
64712;SDS011;51140;45.340;5.980;2022-07-10T08:14:08;4.43;;;1.77;;
64712;SDS011;51140;45.340;5.980;2022-07-10T08:16:34;3.58;;;1.48;;
64712;SDS011;51140;45.340;5.980;2022-07-10T08:18:59;4.28;;;1.50;;
64712;SDS011;51140;45.340;5.980;2022-07-10T08:21:25;4.43;;;1.83;;
64712;SDS011;51140;45.340;5.980;2022-07-10T08:23:50;6.10;;;1.58;;
64712;SDS011;51140;45.340;5.980;2022-07-10T08:26:16;4.80;;;1.70;;
64712;SDS011;51140;45.340;5.980;2022-07-10T08:28:41;3.97;;;1.50;;
64712;SDS011;51140;45.340;5.980;2022-07-10T08:31:07;4.40;;;1.30;;
64712;SDS011;51140;45.340;5.980;2022-07-10T08:33:32;3.60;;;1.50;;
64712;SDS011;51140;45.340;5.980;2022-07-10T08:35:58;4.22;;;1.35;;
64712;SDS011;51140;45.340;5.980;2022-07-10T08:38:25;3.47;;;1.58;;
64712;SDS011;51140;45.340;5.980;2022-07-10T08:40:51;15.88;;;1.75;;
64712;SDS011;51140;45.340;5.980;2022-07-10T08:43:22;2.80;;;1.30;;
64712;SDS011;51140;45.340;5.980;2022-07-10T08:45:48;4.65;;;1.45;;
64712;SDS011;51140;45.340;5.980;2022-07-10T08:48:15;6.38;;;1.90;;
64712;SDS011;51140;45.340;5.980;2022-07-10T08:50:47;3.38;;;1.48;;
64712;SDS011;51140;45.340;5.980;2022-07-10T08:53:15;3.00;;;1.40;;
64712;SDS011;51140;45.340;5.980;2022-07-10T08:55:44;4.00;;;1.40;;
64712;SDS011;51140;45.340;5.980;2022-07-10T08:58:10;3.20;;;1.42;;
64712;SDS011;51140;45.340;5.980;2022-07-10T09:00:38;5.93;;;1.42;;
64712;SDS011;51140;45.340;5.980;2022-07-10T09:03:03;4.30;;;1.70;;
64712;SDS011;51140;45.340;5.980;2022-07-10T09:05:29;3.35;;;1.30;;
64712;SDS011;51140;45.340;5.980;2022-07-10T09:07:55;3.97;;;1.60;;
64712;SDS011;51140;45.340;5.980;2022-07-10T09:10:23;4.50;;;1.42;;
64712;SDS011;51140;45.340;5.980;2022-07-10T09:12:54;4.40;;;1.40;;
64712;SDS011;51140;45.340;5.980;2022-07-10T09:15:28;3.72;;;1.33;;
64712;SDS011;51140;45.340;5.980;2022-07-10T09:18:00;4.07;;;1.40;;
64712;SDS011;51140;45.340;5.980;2022-07-10T09:20:38;4.43;;;1.40;;
64712;SDS011;51140;45.340;5.980;2022-07-10T09:23:17;3.47;;;1.70;;
64712;SDS011;51140;45.340;5.980;2022-07-10T09:28:15;4.88;;;1.40;;
64712;SDS011;51140;45.340;5.980;2022-07-10T09:30:42;3.38;;;1.30;;
64712;SDS011;51140;45.340;5.980;2022-07-10T09:33:17;3.65;;;1.30;;
64712;SDS011;51140;45.340;5.980;2022-07-10T09:41:43;3.17;;;1.20;;
64712;SDS011;51140;45.340;5.980;2022-07-10T09:44:03;3.58;;;1.23;;
64712;SDS011;51140;45.340;5.980;2022-07-10T09:46:34;3.28;;;1.20;;
64712;SDS011;51140;45.340;5.980;2022-07-10T09:49:01;4.50;;;1.27;;
64712;SDS011;51140;45.340;5.980;2022-07-10T09:51:32;4.50;;;1.20;;
64712;SDS011;51140;45.340;5.980;2022-07-10T09:54:02;3.55;;;1.30;;
64712;SDS011;51140;45.340;5.980;2022-07-10T09:56:33;4.72;;;1.30;;
64712;SDS011;51140;45.340;5.980;2022-07-10T09:59:10;4.00;;;1.30;;
64712;SDS011;51140;45.340;5.980;2022-07-10T10:01:42;3.78;;;1.20;;
64712;SDS011;51140;45.340;5.980;2022-07-10T10:04:12;4.53;;;1.20;;
64712;SDS011;51140;45.340;5.980;2022-07-10T10:06:38;4.72;;;1.65;;
64712;SDS011;51140;45.340;5.980;2022-07-10T10:09:07;2.80;;;1.23;;
64712;SDS011;51140;45.340;5.980;2022-07-10T10:11:37;3.10;;;1.30;;
64712;SDS011;51140;45.340;5.980;2022-07-10T10:14:06;3.92;;;1.40;;
64712;SDS011;51140;45.340;5.980;2022-07-10T10:16:33;5.38;;;1.45;;
64712;SDS011;51140;45.340;5.980;2022-07-10T10:18:59;2.17;;;1.17;;
64712;SDS011;51140;45.340;5.980;2022-07-10T10:21:45;4.22;;;1.38;;
64712;SDS011;51140;45.340;5.980;2022-07-10T10:24:11;5.38;;;1.60;;
64712;SDS011;51140;45.340;5.980;2022-07-10T10:26:39;3.22;;;1.25;;
64712;SDS011;51140;45.340;5.980;2022-07-10T10:29:05;2.20;;;1.35;;
64712;SDS011;51140;45.340;5.980;2022-07-10T10:31:31;5.00;;;1.38;;
64712;SDS011;51140;45.340;5.980;2022-07-10T10:33:58;3.08;;;1.30;;
64712;SDS011;51140;45.340;5.980;2022-07-10T10:39:16;1.98;;;1.23;;
64712;SDS011;51140;45.340;5.980;2022-07-10T10:49:16;3.08;;;1.20;;
64712;SDS011;51140;45.340;5.980;2022-07-10T10:54:21;4.10;;;1.25;;
64712;SDS011;51140;45.340;5.980;2022-07-10T10:57:02;2.97;;;1.20;;
64712;SDS011;51140;45.340;5.980;2022-07-10T10:59:45;2.85;;;1.20;;
64712;SDS011;51140;45.340;5.980;2022-07-10T11:07:54;2.08;;;1.10;;
64712;SDS011;51140;45.340;5.980;2022-07-10T11:10:33;3.60;;;1.10;;
64712;SDS011;51140;45.340;5.980;2022-07-10T11:15:28;5.18;;;1.30;;
64712;SDS011;51140;45.340;5.980;2022-07-10T11:17:58;2.25;;;1.10;;
64712;SDS011;51140;45.340;5.980;2022-07-10T11:20:24;3.90;;;1.20;;
64712;SDS011;51140;45.340;5.980;2022-07-10T11:31:12;4.28;;;1.30;;
64712;SDS011;51140;45.340;5.980;2022-07-10T11:33:41;3.20;;;1.45;;
64712;SDS011;51140;45.340;5.980;2022-07-10T11:36:13;4.45;;;1.30;;
64712;SDS011;51140;45.340;5.980;2022-07-10T11:38:40;4.97;;;1.92;;
64712;SDS011;51140;45.340;5.980;2022-07-10T11:41:17;6.43;;;1.25;;
64712;SDS011;51140;45.340;5.980;2022-07-10T11:43:57;3.55;;;1.33;;
64712;SDS011;51140;45.340;5.980;2022-07-10T11:46:27;4.88;;;1.63;;
64712;SDS011;51140;45.340;5.980;2022-07-10T11:48:54;3.08;;;1.13;;
64712;SDS011;51140;45.340;5.980;2022-07-10T11:56:25;3.83;;;1.70;;
64712;SDS011;51140;45.340;5.980;2022-07-10T11:58:58;4.28;;;1.70;;
64712;SDS011;51140;45.340;5.980;2022-07-10T12:01:27;4.22;;;1.38;;
64712;SDS011;51140;45.340;5.980;2022-07-10T12:04:03;5.18;;;1.55;;
64712;SDS011;51140;45.340;5.980;2022-07-10T12:06:31;4.10;;;1.48;;
64712;SDS011;51140;45.340;5.980;2022-07-10T12:09:14;4.18;;;1.75;;
64712;SDS011;51140;45.340;5.980;2022-07-10T12:11:41;3.60;;;1.40;;
64712;SDS011;51140;45.340;5.980;2022-07-10T12:16:34;4.03;;;1.50;;
64712;SDS011;51140;45.340;5.980;2022-07-10T12:19:01;3.55;;;1.50;;
64712;SDS011;51140;45.340;5.980;2022-07-10T12:21:27;4.22;;;1.50;;
64712;SDS011;51140;45.340;5.980;2022-07-10T12:23:53;4.30;;;1.40;;
64712;SDS011;51140;45.340;5.980;2022-07-10T12:26:18;3.80;;;1.58;;
64712;SDS011;51140;45.340;5.980;2022-07-10T12:28:48;4.68;;;1.65;;
64712;SDS011;51140;45.340;5.980;2022-07-10T12:31:22;3.88;;;1.60;;
64712;SDS011;51140;45.340;5.980;2022-07-10T12:33:53;5.72;;;1.40;;
64712;SDS011;51140;45.340;5.980;2022-07-10T12:36:20;5.30;;;1.55;;
64712;SDS011;51140;45.340;5.980;2022-07-10T12:38:52;4.35;;;1.50;;
64712;SDS011;51140;45.340;5.980;2022-07-10T12:41:23;4.10;;;1.40;;
64712;SDS011;51140;45.340;5.980;2022-07-10T12:43:50;6.00;;;1.48;;
64712;SDS011;51140;45.340;5.980;2022-07-10T12:46:21;4.72;;;1.20;;
64712;SDS011;51140;45.340;5.980;2022-07-10T12:51:29;3.08;;;1.10;;
64712;SDS011;51140;45.340;5.980;2022-07-10T12:53:56;4.10;;;1.40;;
64712;SDS011;51140;45.340;5.980;2022-07-10T12:56:34;5.30;;;1.38;;
64712;SDS011;51140;45.340;5.980;2022-07-10T12:59:11;3.08;;;1.10;;
64712;SDS011;51140;45.340;5.980;2022-07-10T13:04:22;2.00;;;1.13;;
64712;SDS011;51140;45.340;5.980;2022-07-10T13:06:49;2.65;;;1.20;;
64712;SDS011;51140;45.340;5.980;2022-07-10T13:09:24;3.60;;;1.30;;
64712;SDS011;51140;45.340;5.980;2022-07-10T13:11:51;2.35;;;1.20;;
64712;SDS011;51140;45.340;5.980;2022-07-10T13:14:17;2.60;;;1.20;;
64712;SDS011;51140;45.340;5.980;2022-07-10T13:16:42;3.40;;;1.42;;
64712;SDS011;51140;45.340;5.980;2022-07-10T13:19:09;5.85;;;1.30;;
64712;SDS011;51140;45.340;5.980;2022-07-10T13:21:34;5.50;;;1.55;;
64712;SDS011;51140;45.340;5.980;2022-07-10T13:24:01;3.40;;;1.27;;
64712;SDS011;51140;45.340;5.980;2022-07-10T13:26:28;4.93;;;1.38;;
64712;SDS011;51140;45.340;5.980;2022-07-10T13:28:54;3.42;;;1.40;;
64712;SDS011;51140;45.340;5.980;2022-07-10T13:31:20;4.72;;;1.40;;
64712;SDS011;51140;45.340;5.980;2022-07-10T13:33:46;2.40;;;1.10;;
64712;SDS011;51140;45.340;5.980;2022-07-10T13:36:11;3.90;;;1.35;;
64712;SDS011;51140;45.340;5.980;2022-07-10T13:38:37;3.95;;;1.40;;
64712;SDS011;51140;45.340;5.980;2022-07-10T13:41:02;3.75;;;1.10;;
64712;SDS011;51140;45.340;5.980;2022-07-10T13:43:28;3.33;;;1.20;;
64712;SDS011;51140;45.340;5.980;2022-07-10T13:45:57;2.22;;;1.10;;
64712;SDS011;51140;45.340;5.980;2022-07-10T13:48:24;5.18;;;1.33;;
64712;SDS011;51140;45.340;5.980;2022-07-10T13:50:50;2.42;;;1.20;;
64712;SDS011;51140;45.340;5.980;2022-07-10T13:53:17;2.60;;;1.30;;
64712;SDS011;51140;45.340;5.980;2022-07-10T13:55:42;4.00;;;1.35;;
64712;SDS011;51140;45.340;5.980;2022-07-10T13:58:11;5.20;;;1.30;;
64712;SDS011;51140;45.340;5.980;2022-07-10T14:00:36;3.72;;;1.30;;
64712;SDS011;51140;45.340;5.980;2022-07-10T14:03:03;2.85;;;1.20;;
64712;SDS011;51140;45.340;5.980;2022-07-10T14:05:29;4.10;;;1.30;;
64712;SDS011;51140;45.340;5.980;2022-07-10T14:07:54;2.63;;;1.23;;
64712;SDS011;51140;45.340;5.980;2022-07-10T14:10:20;3.55;;;1.40;;
64712;SDS011;51140;45.340;5.980;2022-07-10T14:12:45;3.67;;;1.48;;
64712;SDS011;51140;45.340;5.980;2022-07-10T14:15:12;4.93;;;1.40;;
64712;SDS011;51140;45.340;5.980;2022-07-10T14:17:37;3.50;;;1.30;;
64712;SDS011;51140;45.340;5.980;2022-07-10T14:20:02;4.93;;;1.30;;
64712;SDS011;51140;45.340;5.980;2022-07-10T14:22:28;4.82;;;1.35;;
64712;SDS011;51140;45.340;5.980;2022-07-10T14:24:55;4.28;;;1.33;;
64712;SDS011;51140;45.340;5.980;2022-07-10T14:27:21;4.38;;;1.40;;
64712;SDS011;51140;45.340;5.980;2022-07-10T14:29:48;3.65;;;1.35;;
64712;SDS011;51140;45.340;5.980;2022-07-10T14:32:13;3.28;;;1.45;;
64712;SDS011;51140;45.340;5.980;2022-07-10T14:34:39;2.35;;;1.15;;
64712;SDS011;51140;45.340;5.980;2022-07-10T14:37:04;2.75;;;1.15;;
64712;SDS011;51140;45.340;5.980;2022-07-10T14:39:30;8.30;;;1.33;;
64712;SDS011;51140;45.340;5.980;2022-07-10T14:41:55;3.85;;;1.10;;
64712;SDS011;51140;45.340;5.980;2022-07-10T14:44:21;3.90;;;1.20;;
64712;SDS011;51140;45.340;5.980;2022-07-10T14:46:46;3.38;;;1.33;;
64712;SDS011;51140;45.340;5.980;2022-07-10T14:49:11;2.90;;;1.30;;
64712;SDS011;51140;45.340;5.980;2022-07-10T14:51:37;4.90;;;1.33;;
64712;SDS011;51140;45.340;5.980;2022-07-10T14:54:02;2.13;;;1.20;;
64712;SDS011;51140;45.340;5.980;2022-07-10T14:56:28;2.53;;;1.20;;
64712;SDS011;51140;45.340;5.980;2022-07-10T14:58:53;3.67;;;1.40;;
64712;SDS011;51140;45.340;5.980;2022-07-10T15:01:19;2.55;;;1.20;;
64712;SDS011;51140;45.340;5.980;2022-07-10T15:03:44;2.58;;;1.25;;
64712;SDS011;51140;45.340;5.980;2022-07-10T15:06:10;3.33;;;1.35;;
64712;SDS011;51140;45.340;5.980;2022-07-10T15:08:36;4.47;;;1.35;;
64712;SDS011;51140;45.340;5.980;2022-07-10T15:11:02;4.03;;;1.33;;
64712;SDS011;51140;45.340;5.980;2022-07-10T15:13:29;3.45;;;1.23;;
64712;SDS011;51140;45.340;5.980;2022-07-10T15:15:54;4.60;;;1.45;;
64712;SDS011;51140;45.340;5.980;2022-07-10T15:18:20;5.15;;;1.58;;
64712;SDS011;51140;45.340;5.980;2022-07-10T15:20:46;3.05;;;1.42;;
64712;SDS011;51140;45.340;5.980;2022-07-10T15:23:12;4.38;;;2.00;;
64712;SDS011;51140;45.340;5.980;2022-07-10T15:25:38;2.85;;;1.30;;
64712;SDS011;51140;45.340;5.980;2022-07-10T15:28:05;2.38;;;1.27;;
64712;SDS011;51140;45.340;5.980;2022-07-10T15:30:32;3.67;;;1.25;;
64712;SDS011;51140;45.340;5.980;2022-07-10T15:32:58;5.25;;;1.40;;
64712;SDS011;51140;45.340;5.980;2022-07-10T15:35:23;5.38;;;1.60;;
64712;SDS011;51140;45.340;5.980;2022-07-10T15:37:49;2.92;;;1.42;;
64712;SDS011;51140;45.340;5.980;2022-07-10T15:40:14;4.30;;;1.38;;